Accueil
METAR-TAF:

METAR-TAF

Aéroports :

Sullivan County International Airport

Monticello, New York, États-Unis

latitude: 41-42N, longitude: 074-48W, altitude: 428 m

Observation

Le bulletin a été fait il y a 22 minutes, à 17:56 UTC
Vent 17 kt de ouest/nord-ouest avec des rafales jusqu'à 25 kt
Température 1°C
Humidité 86%
Pression 995 hPa
Visibilité: 2.4 km
Nuages fragmentés à une hauteur de 1400 ft
Ciel couvert à une hauteur de 2000 ft
neige faible, brume

METAR: KMSV 101756Z AUTO 29017G25KT 1 1/2SM -SN BR BKN014 OVC020 01/M01 A2938 RMK AO2 PK WND 28033/1710 UPB01E15SNE00B16 SLP962 P0000 60000 T00111011 10033 20011 53016 FZRANO

Heure: 14:18 (18:18 UTC)


TAF: absent

Observations et prévisions météorologiques de plus de 4000 aéroports (messages METAR et TAF).

Les stations disponibles sont représentées par des disques jaunes et rouges sur la carte.

Passer la souris dessus pour voir le nom de la station.

Cliquer dessus pour voir les observations et prévisions météorologiques.

Pour changer de carte: cliquez sur les boutons verts avec une croix noire pour zoomer, sur le bouton vert avec un tiret pour effectuer un zoom arrière, ou sur les flèches vertes pour les cartes adjacentes.


METAR-TAF: